createdAt,value
2022-10-19T00:01:36.836Z,16.12
2022-10-19T00:04:39.890Z,13.48
2022-10-19T00:07:42.644Z,12.65
2022-10-19T00:10:45.626Z,10.88
2022-10-19T00:13:48.414Z,10.70
2022-10-19T00:16:53.190Z,12.07
2022-10-19T00:19:56.070Z,14.80
2022-10-19T00:23:00.563Z,12.07
2022-10-19T00:26:03.829Z,18.55
2022-10-19T00:29:08.570Z,13.03
2022-10-19T00:32:11.453Z,12.88
2022-10-19T00:35:14.464Z,11.68
2022-10-19T00:38:18.269Z,11.40
2022-10-19T00:41:22.855Z,14.35
2022-10-19T00:44:31.530Z,14.63
2022-10-19T00:47:34.898Z,12.50
2022-10-19T00:50:37.968Z,13.57
2022-10-19T00:53:41.666Z,14.73
2022-10-19T00:56:46.826Z,14.68
2022-10-19T00:59:50.019Z,15.07
2022-10-19T01:02:52.845Z,13.02
2022-10-19T01:05:56.028Z,18.80
2022-10-19T01:08:58.837Z,15.40
2022-10-19T01:12:20.720Z,13.80
2022-10-19T01:15:36.552Z,10.80
2022-10-19T01:18:41.715Z,12.25
2022-10-19T01:22:05.688Z,18.35
2022-10-19T01:25:24.043Z,13.45
2022-10-19T01:29:14.651Z,15.60
2022-10-19T01:32:29.781Z,13.10
2022-10-19T01:35:50.894Z,13.15
2022-10-19T01:39:00.249Z,16.33
2022-10-19T01:42:08.991Z,12.65
2022-10-19T01:45:18.176Z,16.23
2022-10-19T01:48:25.230Z,14.85
2022-10-19T01:51:34.551Z,14.60
2022-10-19T01:54:44.015Z,16.67
2022-10-19T01:57:49.539Z,16.52
2022-10-19T02:00:53.468Z,19.33
2022-10-19T02:03:57.635Z,17.03
2022-10-19T02:07:02.322Z,18.30
2022-10-19T02:10:05.321Z,19.03
2022-10-19T02:13:08.658Z,16.65
2022-10-19T02:16:17.968Z,16.20
2022-10-19T02:19:25.378Z,18.02
2022-10-19T02:22:28.885Z,20.58
2022-10-19T02:25:33.032Z,14.98
2022-10-19T02:28:35.727Z,19.65
2022-10-19T02:31:38.766Z,16.35
2022-10-19T02:34:42.242Z,22.83
2022-10-19T02:37:45.345Z,17.65
2022-10-19T02:41:06.949Z,20.58
2022-10-19T02:44:15.922Z,19.83
2022-10-19T02:47:26.618Z,22.58
2022-10-19T02:50:29.710Z,19.23
2022-10-19T02:53:32.439Z,21.17
2022-10-19T02:56:36.295Z,19.50
2022-10-19T02:59:39.014Z,19.05
2022-10-19T03:02:42.201Z,23.62
2022-10-19T03:05:44.964Z,21.10
2022-10-19T03:08:48.202Z,18.67
2022-10-19T03:11:51.229Z,20.15
2022-10-19T03:14:54.385Z,20.50
2022-10-19T03:17:57.211Z,16.67
2022-10-19T03:21:05.491Z,24.05
2022-10-19T03:24:08.204Z,22.85
2022-10-19T03:27:11.278Z,19.85
2022-10-19T03:30:14.124Z,19.77
2022-10-19T03:33:17.215Z,26.40
2022-10-19T03:36:25.587Z,24.33
2022-10-19T03:39:28.633Z,23.23
2022-10-19T03:42:31.472Z,24.98
2022-10-19T03:45:35.357Z,22.58
2022-10-19T03:48:38.277Z,23.15
2022-10-19T03:51:41.769Z,21.08
2022-10-19T03:54:44.903Z,18.90
2022-10-19T03:57:47.965Z,19.08
2022-10-19T04:00:50.821Z,21.30
2022-10-19T04:03:55.112Z,19.87
2022-10-19T04:06:57.999Z,21.52
2022-10-19T04:10:00.996Z,19.45
2022-10-19T04:13:03.723Z,18.30
2022-10-19T04:16:07.855Z,20.85
2022-10-19T04:19:14.417Z,21.92
2022-10-19T04:22:17.489Z,21.58
2022-10-19T04:25:21.499Z,22.85
2022-10-19T04:28:24.642Z,19.07
2022-10-19T04:31:29.195Z,20.02
2022-10-19T04:34:35.221Z,23.38
2022-10-19T04:37:40.425Z,22.60
2022-10-19T04:40:43.423Z,20.37
2022-10-19T04:43:46.651Z,23.45
2022-10-19T04:46:49.668Z,21.30
2022-10-19T04:49:52.691Z,21.42
2022-10-19T04:52:55.778Z,26.00
2022-10-19T04:55:58.574Z,21.65
2022-10-19T04:59:01.863Z,19.62
2022-10-19T05:02:04.722Z,26.40
2022-10-19T05:05:08.208Z,20.73
2022-10-19T05:08:11.659Z,21.50
2022-10-19T05:11:15.887Z,22.02
2022-10-19T05:14:18.626Z,20.70
2022-10-19T05:17:22.305Z,23.85
2022-10-19T05:20:25.376Z,23.40
2022-10-19T05:23:29.391Z,21.87
2022-10-19T05:26:32.182Z,22.35
2022-10-19T05:29:35.354Z,21.02
2022-10-19T05:32:38.069Z,21.90
2022-10-19T05:35:41.027Z,22.67
2022-10-19T05:38:45.183Z,23.08
2022-10-19T05:41:48.371Z,20.77
2022-10-19T05:44:51.405Z,19.60
2022-10-19T05:47:54.388Z,20.23
2022-10-19T05:50:57.670Z,20.73
2022-10-19T05:54:00.777Z,20.85
2022-10-19T05:57:04.343Z,18.42
2022-10-19T06:00:07.992Z,21.98
2022-10-19T06:03:15.667Z,19.48
2022-10-19T06:06:19.231Z,21.27
2022-10-19T06:09:22.003Z,24.37
2022-10-19T06:12:25.255Z,22.55
2022-10-19T06:15:27.999Z,29.65
2022-10-19T06:18:31.041Z,25.35
2022-10-19T06:21:34.812Z,28.90
2022-10-19T06:24:37.810Z,24.17
2022-10-19T06:27:40.607Z,27.52
2022-10-19T06:30:43.807Z,23.85
2022-10-19T06:33:49.221Z,22.60
2022-10-19T06:36:53.064Z,22.50
2022-10-19T06:39:56.825Z,28.85
2022-10-19T06:42:59.976Z,23.00
2022-10-19T06:46:08.515Z,25.70
2022-10-19T06:49:13.418Z,24.15
2022-10-19T06:52:16.151Z,22.20
2022-10-19T06:55:20.247Z,23.40
2022-10-19T06:58:22.976Z,24.85
2022-10-19T07:01:26.126Z,27.98
2022-10-19T07:04:29.416Z,25.05
2022-10-19T07:07:33.263Z,22.10
2022-10-19T07:10:37.112Z,19.85
2022-10-19T07:13:40.488Z,24.95
2022-10-19T07:16:43.396Z,22.25
2022-10-19T07:19:46.370Z,19.75
2022-10-19T07:22:49.194Z,21.98
2022-10-19T07:25:53.695Z,17.50
2022-10-19T07:28:57.702Z,18.50
2022-10-19T07:32:01.860Z,20.80
2022-10-19T07:35:06.749Z,21.27
2022-10-19T07:41:15.913Z,18.62
2022-10-19T07:44:19.730Z,24.48
2022-10-19T07:47:22.462Z,20.40
2022-10-19T07:50:27.443Z,18.95
2022-10-19T07:53:30.229Z,24.70
2022-10-19T07:56:33.264Z,16.40
2022-10-19T07:59:36.442Z,17.05
2022-10-19T08:02:57.866Z,19.62
2022-10-19T08:06:08.579Z,14.57
2022-10-19T08:09:15.661Z,16.05
2022-10-19T08:12:26.004Z,11.67
2022-10-19T08:15:30.273Z,17.12
2022-10-19T08:18:33.422Z,12.13
2022-10-19T08:21:37.524Z,9.80
2022-10-19T08:24:40.610Z,10.73
2022-10-19T08:27:43.415Z,6.37
2022-10-19T08:30:46.649Z,11.00
2022-10-19T08:33:50.713Z,6.50
2022-10-19T08:36:54.926Z,4.43
2022-10-19T08:39:57.741Z,7.25
2022-10-19T08:43:05.824Z,5.43
2022-10-19T08:46:20.279Z,4.70
2022-10-19T08:49:26.310Z,4.20
2022-10-19T08:52:34.726Z,5.43
2022-10-19T08:56:03.625Z,6.28
2022-10-19T08:59:48.452Z,4.22
2022-10-19T09:03:37.887Z,3.97
2022-10-19T09:06:52.454Z,4.25
2022-10-19T09:09:59.601Z,5.12
2022-10-19T09:13:07.671Z,5.32
2022-10-19T09:16:19.566Z,4.32
2022-10-19T09:19:26.167Z,4.03
2022-10-19T09:22:35.281Z,3.50
2022-10-19T09:25:38.809Z,2.70
2022-10-19T09:28:58.605Z,3.85
2022-10-19T09:32:05.225Z,1.87
2022-10-19T09:35:19.331Z,2.92
2022-10-19T09:38:24.535Z,1.83
2022-10-19T09:41:27.654Z,2.35
2022-10-19T09:44:30.707Z,1.80
2022-10-19T09:47:41.255Z,1.30
2022-10-19T09:50:44.958Z,1.40
2022-10-19T09:53:51.935Z,2.90
2022-10-19T09:56:56.444Z,1.05
2022-10-19T10:00:04.928Z,1.15
2022-10-19T10:03:43.797Z,1.48
2022-10-19T10:06:48.393Z,0.75
2022-10-19T10:09:52.619Z,1.30
2022-10-19T10:12:55.743Z,1.12
2022-10-19T10:16:02.048Z,2.15
2022-10-19T10:19:12.857Z,1.30
2022-10-19T10:22:52.152Z,2.87
2022-10-19T10:25:59.673Z,0.80
2022-10-19T10:29:02.617Z,1.23
2022-10-19T10:32:09.416Z,1.50
2022-10-19T10:35:26.602Z,1.00
2022-10-19T10:38:34.021Z,1.65
2022-10-19T10:41:39.903Z,1.60
2022-10-19T10:44:49.022Z,2.25
2022-10-19T10:47:53.735Z,1.65
2022-10-19T10:50:57.868Z,1.30
2022-10-19T10:54:31.704Z,1.40
2022-10-19T10:57:41.629Z,1.65
2022-10-19T11:00:45.228Z,3.83
2022-10-19T11:03:53.371Z,1.17
2022-10-19T11:07:02.636Z,1.98
2022-10-19T11:10:14.674Z,1.60
2022-10-19T11:13:26.760Z,1.52
2022-10-19T11:16:34.167Z,1.50
2022-10-19T11:19:42.368Z,1.10
2022-10-19T11:22:53.199Z,1.40
2022-10-19T11:26:09.495Z,1.52
2022-10-19T11:29:31.483Z,4.90
2022-10-19T11:33:06.789Z,2.22
2022-10-19T11:36:23.178Z,3.43
2022-10-19T11:39:39.566Z,3.75
2022-10-19T11:42:54.448Z,1.15
2022-10-19T11:49:31.862Z,1.45
2022-10-19T11:52:46.507Z,1.52
2022-10-19T11:56:10.867Z,1.40
2022-10-19T12:02:45.723Z,4.67
2022-10-19T12:06:09.386Z,1.85
2022-10-19T12:09:36.228Z,1.62
2022-10-19T12:12:42.900Z,1.65
2022-10-19T12:15:49.482Z,1.65
2022-10-19T12:18:55.984Z,3.25
2022-10-19T12:22:01.082Z,2.67
2022-10-19T12:25:04.930Z,3.47
2022-10-19T12:28:11.334Z,4.05
2022-10-19T12:31:14.938Z,2.75
2022-10-19T12:34:39.625Z,1.67
2022-10-19T12:37:59.991Z,4.15
2022-10-19T12:41:21.005Z,2.95
2022-10-19T12:45:01.416Z,2.30
2022-10-19T12:48:11.265Z,1.95
2022-10-19T12:51:15.978Z,2.92
2022-10-19T12:54:25.712Z,3.92
2022-10-19T12:57:29.755Z,3.85
2022-10-19T13:00:38.136Z,5.03
2022-10-19T13:03:43.075Z,2.22
2022-10-19T13:07:01.642Z,4.40
2022-10-19T13:10:07.911Z,2.65
2022-10-19T13:13:51.221Z,2.95
2022-10-19T13:17:02.557Z,2.37
2022-10-19T13:20:14.671Z,2.42
2022-10-19T13:23:17.809Z,2.97
2022-10-19T13:26:31.203Z,2.05
2022-10-19T13:29:37.281Z,2.87
2022-10-19T13:32:44.698Z,5.22
2022-10-19T13:35:47.857Z,2.92
2022-10-19T13:39:00.620Z,2.53
2022-10-19T13:42:03.996Z,4.47
2022-10-19T13:45:07.349Z,2.75
2022-10-19T13:48:26.159Z,2.65
2022-10-19T13:52:09.898Z,2.10
2022-10-19T13:55:22.055Z,4.97
2022-10-19T13:59:03.388Z,4.97
2022-10-19T14:02:22.754Z,1.75
2022-10-19T14:05:35.937Z,2.72
2022-10-19T14:09:00.603Z,2.10
2022-10-19T14:12:26.912Z,3.42
2022-10-19T14:15:34.992Z,3.53
2022-10-19T14:18:38.262Z,2.42
2022-10-19T14:21:41.386Z,5.97
2022-10-19T14:24:44.703Z,3.33
2022-10-19T14:27:48.917Z,4.75
2022-10-19T14:34:01.869Z,3.70
2022-10-19T14:37:05.116Z,6.20
2022-10-19T14:40:26.721Z,8.48
2022-10-19T14:43:34.521Z,3.25
2022-10-19T14:46:38.402Z,3.75
2022-10-19T14:49:41.570Z,3.22
2022-10-19T14:52:44.757Z,2.28
2022-10-19T14:55:48.334Z,4.80
2022-10-19T14:58:55.492Z,3.80
2022-10-19T15:02:01.403Z,4.57
2022-10-19T15:05:05.876Z,2.05
2022-10-19T15:08:11.165Z,3.10
2022-10-19T15:11:22.442Z,2.58
2022-10-19T15:14:30.766Z,3.15
2022-10-19T15:17:36.333Z,4.97
2022-10-19T15:20:54.998Z,3.62
2022-10-19T15:24:34.908Z,2.60
2022-10-19T15:27:40.095Z,1.92
2022-10-19T15:33:56.547Z,5.75
2022-10-19T15:37:01.045Z,3.83
2022-10-19T15:40:13.396Z,2.78
2022-10-19T15:43:34.401Z,3.08
2022-10-19T15:46:49.621Z,3.92
2022-10-19T15:49:58.632Z,4.15
2022-10-19T15:53:01.894Z,4.07
2022-10-19T15:56:04.966Z,3.12
2022-10-19T15:59:24.563Z,7.10
2022-10-19T16:02:27.437Z,4.97
2022-10-19T16:05:31.989Z,7.28
2022-10-19T16:08:34.871Z,3.05
2022-10-19T16:11:38.019Z,1.92
2022-10-19T16:14:40.824Z,4.97
2022-10-19T16:17:46.140Z,3.33
2022-10-19T16:20:49.579Z,2.53
2022-10-19T16:23:53.285Z,5.20
2022-10-19T16:26:56.781Z,4.03
2022-10-19T16:30:00.924Z,5.10
2022-10-19T16:33:04.076Z,3.67
2022-10-19T16:36:08.238Z,3.62
2022-10-19T16:39:11.513Z,4.85
2022-10-19T16:42:15.194Z,6.37
2022-10-19T16:45:18.602Z,4.70
2022-10-19T16:48:24.103Z,3.60
2022-10-19T16:51:34.728Z,8.00
2022-10-19T16:54:38.628Z,3.30
2022-10-19T16:57:41.528Z,2.97
2022-10-19T17:00:47.068Z,5.13
2022-10-19T17:03:50.241Z,3.90
2022-10-19T17:06:53.865Z,5.65
2022-10-19T17:09:57.857Z,3.62
2022-10-19T17:13:01.709Z,6.03
2022-10-19T17:16:12.028Z,4.90
2022-10-19T17:19:17.861Z,7.35
2022-10-19T17:22:22.085Z,5.07
2022-10-19T17:25:26.839Z,3.05
2022-10-19T17:28:29.875Z,5.40
2022-10-19T17:31:35.358Z,5.97
2022-10-19T17:34:41.463Z,6.72
2022-10-19T17:37:45.301Z,5.30
2022-10-19T17:40:48.427Z,4.85
2022-10-19T17:43:52.537Z,3.97
2022-10-19T17:46:56.251Z,6.45
2022-10-19T17:50:00.700Z,4.20
2022-10-19T17:53:04.346Z,7.40
2022-10-19T17:56:08.472Z,8.65
2022-10-19T17:59:11.981Z,5.37
2022-10-19T18:02:16.304Z,4.35
2022-10-19T18:05:20.079Z,9.82
2022-10-19T18:08:23.224Z,8.05
2022-10-19T18:11:40.528Z,4.62
2022-10-19T18:14:45.323Z,4.07
2022-10-19T18:17:50.173Z,3.67
2022-10-19T18:20:53.737Z,5.28
2022-10-19T18:23:59.391Z,4.12
2022-10-19T18:27:02.936Z,4.25
2022-10-19T18:30:06.760Z,2.67
2022-10-19T18:33:10.232Z,4.70
2022-10-19T18:36:15.548Z,8.00
2022-10-19T18:39:20.233Z,4.50
2022-10-19T18:42:24.784Z,2.83
2022-10-19T18:45:29.115Z,2.30
2022-10-19T18:51:40.654Z,4.32
2022-10-19T18:54:44.510Z,8.80
2022-10-19T18:57:52.982Z,2.92
2022-10-19T19:01:24.762Z,4.28
2022-10-19T19:04:31.516Z,2.37
2022-10-19T19:07:35.666Z,6.12
2022-10-19T19:10:39.350Z,5.05
2022-10-19T19:13:48.949Z,21.15
2022-10-19T19:16:54.913Z,5.78
2022-10-19T19:19:58.668Z,4.82
2022-10-19T19:23:02.371Z,3.55
2022-10-19T19:26:08.123Z,3.60
2022-10-19T19:29:16.965Z,10.35
2022-10-19T19:32:20.748Z,3.28
2022-10-19T19:35:24.721Z,5.95
2022-10-19T19:38:30.988Z,3.67
2022-10-19T19:41:35.490Z,6.35
2022-10-19T19:44:39.338Z,4.25
2022-10-19T19:47:42.841Z,5.45
2022-10-19T19:50:47.843Z,4.75
2022-10-19T19:53:50.957Z,3.83
2022-10-19T19:56:54.755Z,20.85
2022-10-19T19:59:58.888Z,10.13
2022-10-19T20:03:02.744Z,5.50
2022-10-19T20:06:07.771Z,5.72
2022-10-19T20:09:11.829Z,3.58
2022-10-19T20:12:15.811Z,7.00
2022-10-19T20:15:20.719Z,5.85
2022-10-19T20:18:24.502Z,8.82
2022-10-19T20:21:28.250Z,6.45
2022-10-19T20:24:37.639Z,9.45
2022-10-19T20:27:41.207Z,6.60
2022-10-19T20:30:45.572Z,7.60
2022-10-19T20:33:49.084Z,6.37
2022-10-19T20:36:53.986Z,7.10
2022-10-19T20:39:58.140Z,8.95
2022-10-19T20:43:01.568Z,6.55
2022-10-19T20:46:11.211Z,8.65
2022-10-19T20:49:15.213Z,5.43
2022-10-19T20:52:18.416Z,4.28
2022-10-19T20:55:23.147Z,5.87
2022-10-19T20:58:26.066Z,6.00
2022-10-19T21:01:32.053Z,4.32
2022-10-19T21:04:36.275Z,5.53
2022-10-19T21:07:39.681Z,5.40
2022-10-19T21:10:42.848Z,4.90
2022-10-19T21:13:46.555Z,4.57
2022-10-19T21:16:49.432Z,3.70
2022-10-19T21:19:55.024Z,5.00
2022-10-19T21:22:59.815Z,3.55
2022-10-19T21:26:02.914Z,8.88
2022-10-19T21:29:09.620Z,3.35
2022-10-19T21:32:12.766Z,4.55
2022-10-19T21:35:15.567Z,3.28
2022-10-19T21:38:18.645Z,4.85
2022-10-19T21:41:25.395Z,4.10
2022-10-19T21:44:29.676Z,5.45
2022-10-19T21:47:32.914Z,3.70
2022-10-19T21:50:36.259Z,5.47
2022-10-19T21:53:39.682Z,5.55
2022-10-19T21:56:43.231Z,4.60
2022-10-19T21:59:46.272Z,4.10
2022-10-19T22:02:49.341Z,4.70
2022-10-19T22:05:52.717Z,5.78
2022-10-19T22:08:56.007Z,8.15
2022-10-19T22:11:59.211Z,4.97
2022-10-19T22:15:01.985Z,5.18
2022-10-19T22:18:05.084Z,5.95
2022-10-19T22:21:11.299Z,4.68
2022-10-19T22:24:15.510Z,5.62
2022-10-19T22:27:18.270Z,10.68
2022-10-19T22:30:21.359Z,5.28
2022-10-19T22:33:25.679Z,6.25
2022-10-19T22:36:28.744Z,4.57
2022-10-19T22:39:32.916Z,4.10
2022-10-19T22:42:36.309Z,4.97
2022-10-19T22:45:39.888Z,6.22
2022-10-19T22:48:42.995Z,6.10
2022-10-19T22:51:45.874Z,4.32
2022-10-19T22:54:50.683Z,5.82
2022-10-19T22:57:53.549Z,4.80
2022-10-19T23:01:07.775Z,3.75
2022-10-19T23:04:10.632Z,7.43
2022-10-19T23:07:13.873Z,4.07
2022-10-19T23:10:17.075Z,4.25
2022-10-19T23:13:20.262Z,6.20
2022-10-19T23:16:23.253Z,5.18
2022-10-19T23:19:26.551Z,4.53
2022-10-19T23:22:29.707Z,8.48
2022-10-19T23:28:37.909Z,8.43
2022-10-19T23:31:41.337Z,4.15
2022-10-19T23:34:47.449Z,5.37
2022-10-19T23:37:51.661Z,4.00
2022-10-19T23:40:54.861Z,7.28
2022-10-19T23:43:57.950Z,2.42
2022-10-19T23:47:01.509Z,3.47
2022-10-19T23:50:04.759Z,3.97
2022-10-19T23:53:07.619Z,5.22
2022-10-19T23:56:30.834Z,2.55
2022-10-19T23:59:33.688Z,3.53
